Mill Run, PA (15464)

1:42 PM EST on December 25, 2014 (GMT -0500)
KPACONFL2 | Change Station
CLOSE
Current Station
Personal Weather Station
Location: Confluence, PA
Elevation: 1336 ft
Nearby Weather Stations

Elev 1336 ft 39.81 °N, 79.36 °W | Updated 5 seconds ago

Overcast
Overcast
40.5 °F
Feels Like 36 °F
N
7.0
Wind Variable Wind from SSW
Gusts 13.0 mph

Today
High -- | Low -- °F
--% Chance of Precip.
Yesterday
High -- | Low -- °F
Precip. -- in
7:37 AM 4:58 PM
Waxing Crescent, 18% visible
Pressure 30.01 in
Visibility 15.0 miles
Clouds Mostly Cloudy 2300 ft
Mostly Cloudy 4000 ft
Windchill 36 °F
Dew Point 34 °F
Humidity 79%
Rainfall 0.09 in
Snow Depth Not available.
UV 1 out of 12
Pollen .10 out of 12
Air Quality Not available.
Flu Activity Not available.
METAR KLBE 251750Z 26010G20KT 15SM BKN023 BKN040 04/02 A3001

More Conditions Fewer Conditions

Pressure 30.01 in
Visibility 15.0 miles
Clouds Mostly Cloudy 2300 ft
Mostly Cloudy 4000 ft
Windchill 36 °F
Dew Point 34 °F
Humidity 79%
Rainfall 0.09 in
Snow Depth Not available.
UV 1 out of 12
Pollen .10 out of 12
Air Quality Not available.
Flu Activity Not available.
METAR KLBE 251750Z 26010G20KT 15SM BKN023 BKN040 04/02 A3001

More Conditions Fewer Conditions

10-Day Weather Forecast

Almanac

Astronomy

Dec. 25, 2014 Rise Set
Actual Time
Civil Twilight
Nautical Twilight
Astronomical Twilight
Moon
Length of Visible Light
Length of Day
Tomorrow will be .
, % of the Moon is Illuminated

Today's Extremes

State Highs State Lows

Community

WunderPhotos

Upload Photos

1,780,358 photos uploaded!

WunderBlogs® & News

Nearby

Air Quality

  Air Quality AQ Index Pollutant
Not available.

Snow Depth

Station Depth Elevation

Earthquake Activity

City Distance Mag. Time & Date
Minimum magnitude displayed is 2.5.

Coastal Water Temperatures

Place Temperature

Nearby Weather Stations